Time;durP1;ratioP1;P1;durP2;ratioP2;P2;SDS_P1;SDS_P2;PMS_P1;PMS_P2;Temp;Humidity;BMP_temperature;BMP_pressure;BME280_temperature;BME280_humidity;BME280_pressure;Samples;Min_cycle;Max_cycle;Signal;HPM_P1;HPM_P2
2021/09/07 00:00:37;;;;;;;1.88;1.48;;;16.20;78.60;;;;;;4808546;29;20485;-84
2021/09/07 00:03:03;;;;;;;2.97;1.10;;;16.30;78.70;;;;;;4816897;29;20497;-84
2021/09/07 00:05:29;;;;;;;1.85;1.20;;;16.20;78.70;;;;;;4848604;29;20087;-85
2021/09/07 00:07:54;;;;;;;2.53;1.60;;;16.20;78.70;;;;;;4864374;29;20069;-86
2021/09/07 00:10:21;;;;;;;2.53;1.48;;;16.20;78.70;;;;;;4863649;29;20559;-83
2021/09/07 00:12:47;;;;;;;1.80;1.35;;;16.20;78.70;;;;;;4883402;29;20420;-88
2021/09/07 00:15:15;;;;;;;2.13;1.42;;;16.20;78.80;;;;;;4878895;29;20492;-84
2021/09/07 00:18:38;;;;;;;1.98;1.30;;;16.30;78.80;;;;;;4874804;29;20049;-90
2021/09/07 00:21:38;;;;;;;2.17;1.30;;;16.30;78.90;;;;;;4867296;29;20056;-90
2021/09/07 00:24:28;;;;;;;1.45;1.10;;;16.30;78.70;;;;;;4886387;29;20626;-88
2021/09/07 00:26:54;;;;;;;1.85;1.30;;;16.30;78.80;;;;;;4884403;29;20518;-80
2021/09/07 00:29:20;;;;;;;1.13;0.82;;;16.30;78.70;;;;;;4884089;29;20056;-82
2021/09/07 00:31:45;;;;;;;1.15;1.02;;;16.40;78.80;;;;;;4897241;29;20053;-82
2021/09/07 00:34:11;;;;;;;1.23;1.00;;;16.30;78.60;;;;;;4881614;29;20055;-83
2021/09/07 00:36:37;;;;;;;1.25;0.90;;;16.30;78.70;;;;;;4897471;29;20081;-83
2021/09/07 00:39:03;;;;;;;1.73;1.30;;;16.40;78.70;;;;;;4897704;29;20076;-85
2021/09/07 00:41:29;;;;;;;1.75;1.13;;;16.40;78.70;;;;;;4865257;29;20051;-85
2021/09/07 00:43:55;;;;;;;1.15;1.00;;;16.40;78.80;;;;;;4898119;29;20048;-84
2021/09/07 00:46:20;;;;;;;1.33;0.95;;;16.50;78.80;;;;;;4882133;29;20059;-85
2021/09/07 00:48:58;;;;;;;1.33;1.10;;;16.40;78.70;;;;;;4901056;29;20052;-87
2021/09/07 00:51:26;;;;;;;2.05;1.27;;;16.40;78.80;;;;;;4919468;29;20052;-83
2021/09/07 00:53:54;;;;;;;2.28;1.33;;;16.40;78.70;;;;;;4882928;29;20182;-87
2021/09/07 00:57:16;;;;;;;1.15;0.90;;;16.50;78.80;;;;;;4943884;28;20071;-91
2021/09/07 01:02:58;;;;;;;0.90;0.80;;;16.50;78.70;;;;;;4919833;29;20063;-88
2021/09/07 01:05:24;;;;;;;1.25;1.00;;;16.50;78.70;;;;;;4936196;29;20076;-85
2021/09/07 01:07:50;;;;;;;1.63;1.08;;;16.50;78.70;;;;;;4917107;29;20134;-82
2021/09/07 01:10:33;;;;;;;1.45;1.05;;;16.50;78.80;;;;;;4916597;29;20575;-86
2021/09/07 01:12:59;;;;;;;2.03;1.20;;;16.50;78.80;;;;;;4913411;29;20526;-84
2021/09/07 01:15:58;;;;;;;1.90;1.10;;;16.50;78.80;;;;;;4937471;29;20087;-88
2021/09/07 01:18:23;;;;;;;1.85;1.15;;;16.50;78.90;;;;;;4870473;29;20033;-84
2021/09/07 01:20:49;;;;;;;1.30;1.08;;;16.50;78.80;;;;;;4850952;29;20492;-86
2021/09/07 01:31:18;;;;;;;1.17;0.90;;;16.50;78.90;;;;;;4876042;29;20114;-86
2021/09/07 01:33:47;;;;;;;1.58;1.20;;;16.60;78.90;;;;;;4875947;29;20494;-82
2021/09/07 01:36:15;;;;;;;1.38;0.90;;;16.50;78.90;;;;;;4915729;29;20451;-83
2021/09/07 01:38:41;;;;;;;2.17;1.38;;;16.60;79.10;;;;;;4899467;29;20127;-82
2021/09/07 01:41:07;;;;;;;1.52;1.08;;;16.60;79.10;;;;;;4899661;29;20071;-81
2021/09/07 01:43:33;;;;;;;1.67;1.15;;;16.60;79.10;;;;;;4899528;29;20083;-81
2021/09/07 01:45:59;;;;;;;2.40;1.20;;;16.60;79.10;;;;;;4901429;29;20492;-83
2021/09/07 01:48:26;;;;;;;1.02;0.90;;;16.60;79.10;;;;;;4923746;29;20415;-82
2021/09/07 01:50:52;;;;;;;1.38;1.02;;;16.50;79.20;;;;;;4941304;29;20043;-81
2021/09/07 01:53:19;;;;;;;1.50;1.10;;;16.60;79.30;;;;;;4957039;28;20134;-82
2021/09/07 01:55:45;;;;;;;1.63;1.17;;;16.60;79.40;;;;;;4953801;28;20397;-82
2021/09/07 01:58:11;;;;;;;1.75;1.30;;;16.50;79.50;;;;;;4945051;28;20047;-82
2021/09/07 02:00:37;;;;;;;2.17;1.30;;;16.50;79.60;;;;;;4943373;28;20050;-82
2021/09/07 02:03:03;;;;;;;2.00;1.40;;;16.50;79.70;;;;;;4944869;28;20039;-82
2021/09/07 02:05:29;;;;;;;1.38;1.10;;;16.50;79.80;;;;;;4941734;28;20078;-81
2021/09/07 02:07:54;;;;;;;1.40;1.10;;;16.40;79.80;;;;;;4957849;28;20057;-82
2021/09/07 02:10:20;;;;;;;1.42;1.10;;;16.50;79.90;;;;;;4957782;28;20106;-81
2021/09/07 02:12:47;;;;;;;1.60;1.10;;;16.50;80.00;;;;;;4959044;28;20053;-82
2021/09/07 02:15:14;;;;;;;2.70;1.50;;;16.50;80.10;;;;;;4942106;29;20043;-82
2021/09/07 02:17:40;;;;;;;1.88;1.10;;;16.50;80.10;;;;;;4925064;29;20398;-82
2021/09/07 02:20:07;;;;;;;1.48;1.15;;;16.40;80.10;;;;;;4961659;28;20051;-82
2021/09/07 02:22:32;;;;;;;1.38;1.00;;;16.40;80.00;;;;;;4940787;28;20043;-82
2021/09/07 02:24:58;;;;;;;1.85;1.30;;;16.40;80.10;;;;;;4959634;28;20039;-81
2021/09/07 02:27:24;;;;;;;1.25;1.00;;;16.50;80.10;;;;;;4958225;28;20130;-82
2021/09/07 02:29:50;;;;;;;1.63;1.20;;;16.50;80.10;;;;;;4940764;28;20059;-82
2021/09/07 02:32:16;;;;;;;1.40;1.20;;;16.50;80.10;;;;;;4959617;28;20043;-81
2021/09/07 02:34:41;;;;;;;1.70;1.23;;;16.50;80.10;;;;;;4943656;28;20486;-82
2021/09/07 02:37:07;;;;;;;1.23;1.05;;;16.50;80.10;;;;;;4942162;28;20085;-82
2021/09/07 02:39:33;;;;;;;2.25;1.10;;;16.50;80.10;;;;;;4958298;28;20051;-81
2021/09/07 02:41:59;;;;;;;1.73;1.20;;;16.50;80.10;;;;;;4960598;28;20482;-82
2021/09/07 02:44:25;;;;;;;1.95;1.23;;;16.40;80.10;;;;;;4940742;28;20035;-82
2021/09/07 02:46:51;;;;;;;2.28;1.45;;;16.50;80.20;;;;;;4966094;28;20043;-82
2021/09/07 02:49:16;;;;;;;1.52;1.13;;;16.40;80.10;;;;;;4958646;28;20043;-81
2021/09/07 02:51:43;;;;;;;2.17;1.30;;;16.50;80.20;;;;;;4956852;28;20047;-82
2021/09/07 02:54:09;;;;;;;1.70;1.15;;;16.50;80.30;;;;;;4951772;28;20437;-82
2021/09/07 02:56:36;;;;;;;1.90;1.13;;;16.50;80.30;;;;;;4957723;28;20421;-81
2021/09/07 02:59:01;;;;;;;1.95;1.25;;;16.50;80.30;;;;;;4942638;28;20057;-82
2021/09/07 03:01:27;;;;;;;1.63;1.20;;;16.50;80.30;;;;;;4951560;28;20044;-81
2021/09/07 03:03:54;;;;;;;1.80;1.20;;;16.50;80.30;;;;;;4948610;28;20046;-82
2021/09/07 03:06:20;;;;;;;2.03;1.30;;;16.50;80.40;;;;;;4964342;28;20047;-81
2021/09/07 03:08:45;;;;;;;1.85;1.30;;;16.50;80.40;;;;;;4947119;28;20047;-82
2021/09/07 03:11:11;;;;;;;1.98;1.17;;;16.50;80.30;;;;;;4965265;28;20411;-82
2021/09/07 03:13:37;;;;;;;1.98;1.30;;;16.50;80.30;;;;;;4946985;28;20402;-82
2021/09/07 03:16:03;;;;;;;1.65;1.20;;;16.50;80.30;;;;;;4963262;28;20046;-81
2021/09/07 03:18:29;;;;;;;1.83;1.30;;;16.50;80.30;;;;;;4948909;28;20047;-82
2021/09/07 03:20:55;;;;;;;2.28;1.35;;;16.60;80.40;;;;;;4945444;28;20066;-82
2021/09/07 03:23:21;;;;;;;1.38;0.95;;;16.60;80.40;;;;;;4930455;28;20502;-81
2021/09/07 03:25:47;;;;;;;2.15;1.23;;;16.60;80.50;;;;;;4946779;28;20047;-83
2021/09/07 03:28:13;;;;;;;1.98;1.35;;;16.50;80.50;;;;;;4931222;28;20043;-82
2021/09/07 03:30:38;;;;;;;1.70;1.33;;;16.50;80.60;;;;;;4944556;28;20094;-82
2021/09/07 03:33:04;;;;;;;1.35;1.00;;;16.50;80.60;;;;;;4959961;28;20182;-82
2021/09/07 03:35:31;;;;;;;1.75;1.10;;;16.50;80.70;;;;;;4962352;28;20138;-82
2021/09/07 03:37:57;;;;;;;1.25;0.90;;;16.50;80.70;;;;;;4960656;28;20051;-82
2021/09/07 03:40:23;;;;;;;1.98;1.20;;;16.50;80.80;;;;;;4960772;28;20042;-82
2021/09/07 03:42:48;;;;;;;1.42;1.10;;;16.50;80.80;;;;;;4948568;28;20474;-82
2021/09/07 03:45:15;;;;;;;1.85;1.20;;;16.50;80.90;;;;;;4945487;28;20040;-82
2021/09/07 03:47:42;;;;;;;1.38;0.98;;;16.40;80.90;;;;;;4962107;28;20099;-82
2021/09/07 03:50:09;;;;;;;1.73;0.95;;;16.40;80.90;;;;;;4946014;28;20035;-82
2021/09/07 03:52:35;;;;;;;1.13;0.75;;;16.40;81.00;;;;;;4946989;28;20051;-82
2021/09/07 03:55:01;;;;;;;1.48;1.00;;;16.40;81.00;;;;;;4933722;28;20401;-82
2021/09/07 03:57:27;;;;;;;1.55;1.25;;;16.40;81.00;;;;;;4944189;28;20138;-82
2021/09/07 03:59:53;;;;;;;2.28;1.33;;;16.40;81.00;;;;;;4958366;28;20066;-81
2021/09/07 04:02:19;;;;;;;1.48;1.13;;;16.50;81.10;;;;;;4944231;28;20055;-82
2021/09/07 04:04:45;;;;;;;1.67;1.20;;;16.40;81.10;;;;;;4962449;28;20075;-82
2021/09/07 04:07:11;;;;;;;2.22;1.17;;;16.40;81.10;;;;;;4946201;29;20051;-82
2021/09/07 04:09:37;;;;;;;2.28;1.30;;;16.40;81.20;;;;;;4946579;29;20134;-82
2021/09/07 04:12:03;;;;;;;1.85;1.13;;;16.30;81.20;;;;;;4963591;28;20074;-82
2021/09/07 04:14:29;;;;;;;2.33;1.15;;;16.30;81.30;;;;;;4958256;29;20043;-82
2021/09/07 04:16:55;;;;;;;2.50;1.30;;;16.30;81.30;;;;;;4932694;28;20050;-82
2021/09/07 04:19:20;;;;;;;2.33;1.50;;;16.20;81.40;;;;;;4970542;28;20059;-82
2021/09/07 04:21:46;;;;;;;1.98;1.40;;;16.20;81.50;;;;;;4965978;28;20070;-82
2021/09/07 04:24:12;;;;;;;2.20;1.30;;;16.20;81.60;;;;;;4952551;28;20047;-82
2021/09/07 04:26:38;;;;;;;2.33;1.50;;;16.10;81.60;;;;;;4947997;28;20078;-82
2021/09/07 04:29:03;;;;;;;2.03;1.30;;;16.10;81.70;;;;;;4949057;28;20138;-82
2021/09/07 04:31:30;;;;;;;1.40;1.10;;;16.00;81.80;;;;;;4949354;28;20043;-83
2021/09/07 04:33:55;;;;;;;2.00;1.23;;;15.90;81.80;;;;;;4967121;28;20117;-82
2021/09/07 04:36:21;;;;;;;2.47;1.25;;;15.90;81.80;;;;;;4964683;28;20043;-83
2021/09/07 04:38:47;;;;;;;1.55;1.00;;;15.90;81.90;;;;;;4962750;28;20059;-83
2021/09/07 04:41:13;;;;;;;1.77;1.20;;;15.90;82.10;;;;;;4962306;28;20094;-82
2021/09/07 04:43:39;;;;;;;1.75;1.20;;;15.90;82.10;;;;;;4946138;28;20066;-83
2021/09/07 04:46:04;;;;;;;1.48;1.00;;;15.80;82.10;;;;;;4961631;28;20043;-82
2021/09/07 04:48:31;;;;;;;1.55;1.10;;;15.90;82.20;;;;;;4944566;29;20402;-82
2021/09/07 04:50:56;;;;;;;2.22;1.20;;;15.90;82.20;;;;;;4926937;28;20490;-83
2021/09/07 04:53:22;;;;;;;2.83;1.30;;;15.80;82.20;;;;;;4942980;28;20110;-83
2021/09/07 04:55:48;;;;;;;1.90;1.20;;;15.90;82.20;;;;;;4942986;28;20038;-83
2021/09/07 04:58:14;;;;;;;2.08;1.20;;;15.80;82.20;;;;;;4942206;28;20494;-82
2021/09/07 05:00:40;;;;;;;1.85;1.23;;;15.70;82.30;;;;;;4962235;28;20490;-84
2021/09/07 05:03:05;;;;;;;2.40;1.52;;;15.70;82.30;;;;;;4945430;28;20043;-84
2021/09/07 05:05:32;;;;;;;2.45;1.45;;;15.70;82.40;;;;;;4945210;28;20035;-84
2021/09/07 05:07:58;;;;;;;2.38;1.40;;;15.70;82.40;;;;;;4947831;28;20059;-83
2021/09/07 05:10:26;;;;;;;2.22;1.50;;;15.60;82.50;;;;;;4949200;28;20488;-81
2021/09/07 05:12:51;;;;;;;2.15;1.27;;;15.60;82.40;;;;;;4949464;28;20053;-82
2021/09/07 05:15:17;;;;;;;2.90;1.48;;;15.60;82.40;;;;;;4945248;28;20122;-82
2021/09/07 05:17:44;;;;;;;1.73;1.30;;;15.60;82.40;;;;;;4943644;28;20055;-82
2021/09/07 05:20:11;;;;;;;1.95;1.20;;;15.60;82.40;;;;;;4941039;28;20043;-82
2021/09/07 05:22:38;;;;;;;1.55;1.10;;;15.60;82.40;;;;;;4945781;28;20050;-83
2021/09/07 05:25:05;;;;;;;1.70;1.25;;;15.60;82.40;;;;;;4957381;28;20043;-83
2021/09/07 05:27:35;;;;;;;2.22;1.33;;;15.70;82.50;;;;;;4947140;28;20047;-83
2021/09/07 05:30:01;;;;;;;2.00;1.20;;;15.60;82.40;;;;;;4949187;28;20043;-82
2021/09/07 05:32:27;;;;;;;1.92;1.27;;;15.60;82.40;;;;;;4957122;28;20636;-82
2021/09/07 05:34:53;;;;;;;1.80;1.20;;;15.60;82.40;;;;;;4963939;28;20059;-82
2021/09/07 05:37:18;;;;;;;2.95;1.60;;;15.70;82.40;;;;;;4958747;28;20047;-82
2021/09/07 05:39:45;;;;;;;2.55;1.30;;;15.70;82.40;;;;;;4947178;28;20410;-82
2021/09/07 05:42:10;;;;;;;1.50;1.08;;;15.70;82.40;;;;;;4942296;28;20048;-82
2021/09/07 05:44:36;;;;;;;3.03;1.60;;;15.70;82.40;;;;;;4957779;28;20039;-82
2021/09/07 05:47:02;;;;;;;1.65;1.25;;;15.70;82.40;;;;;;4958054;28;20154;-82
2021/09/07 05:49:28;;;;;;;2.25;1.50;;;15.70;82.40;;;;;;4942220;28;20070;-82
2021/09/07 05:51:54;;;;;;;2.25;1.45;;;15.70;82.40;;;;;;4939746;29;20043;-82
2021/09/07 05:54:19;;;;;;;1.95;1.40;;;15.70;82.40;;;;;;4940666;28;20047;-82
2021/09/07 05:56:45;;;;;;;1.55;1.10;;;15.70;82.40;;;;;;4944497;28;20086;-83
2021/09/07 05:59:11;;;;;;;1.42;1.00;;;15.70;82.40;;;;;;4942858;28;20102;-83
2021/09/07 06:01:38;;;;;;;1.65;1.02;;;15.90;82.40;;;;;;4945146;28;20043;-83
2021/09/07 06:04:04;;;;;;;1.45;1.10;;;15.80;82.30;;;;;;4946448;28;20036;-83
2021/09/07 06:06:29;;;;;;;1.35;1.00;;;15.80;82.20;;;;;;4961076;28;20197;-82
2021/09/07 06:08:55;;;;;;;1.83;1.25;;;15.80;82.20;;;;;;4951884;28;20047;-82
2021/09/07 06:11:21;;;;;;;1.98;1.20;;;15.70;82.10;;;;;;4960905;28;20136;-83
2021/09/07 06:13:47;;;;;;;2.72;1.58;;;15.80;82.20;;;;;;4946517;28;20094;-82
2021/09/07 06:16:13;;;;;;;2.40;1.52;;;15.90;82.20;;;;;;4944334;28;20046;-82
2021/09/07 06:18:39;;;;;;;3.33;1.33;;;15.90;82.20;;;;;;4945107;28;20122;-82
2021/09/07 06:21:04;;;;;;;2.25;1.10;;;15.80;82.20;;;;;;4954939;28;20066;-82
2021/09/07 06:23:30;;;;;;;2.05;1.40;;;16.00;82.20;;;;;;4943216;28;20047;-83
2021/09/07 06:25:58;;;;;;;2.35;1.30;;;16.10;82.20;;;;;;4960535;28;20042;-82
2021/09/07 06:28:25;;;;;;;1.95;1.20;;;16.10;82.10;;;;;;4942388;28;20051;-82
2021/09/07 06:30:51;;;;;;;2.28;1.30;;;16.20;82.00;;;;;;4961195;28;20043;-83
2021/09/07 06:33:25;;;;;;;1.50;1.10;;;16.20;81.90;;;;;;4939520;28;20054;-85
2021/09/07 06:35:51;;;;;;;2.28;1.23;;;16.40;81.80;;;;;;4943509;28;20054;-82
2021/09/07 06:38:17;;;;;;;3.03;1.70;;;16.50;81.60;;;;;;4962231;28;20047;-82
2021/09/07 06:40:42;;;;;;;3.42;1.80;;;16.60;81.30;;;;;;4962190;28;20039;-81
2021/09/07 06:43:08;;;;;;;2.85;1.50;;;16.70;81.10;;;;;;4945844;28;20043;-82
2021/09/07 06:45:34;;;;;;;2.47;1.50;;;16.70;80.80;;;;;;4940042;28;20098;-82
2021/09/07 06:48:00;;;;;;;3.10;1.55;;;16.90;80.70;;;;;;4939441;29;20929;-81
2021/09/07 06:50:25;;;;;;;2.72;1.50;;;17.00;80.60;;;;;;4941262;28;20067;-82
2021/09/07 06:53:00;;;;;;;2.40;1.40;;;17.10;80.40;;;;;;4944623;28;20078;-86
2021/09/07 06:55:25;;;;;;;3.05;1.58;;;17.10;80.30;;;;;;4927365;28;20509;-86
2021/09/07 06:57:53;;;;;;;2.33;1.40;;;17.30;80.30;;;;;;4939381;28;20110;-84
2021/09/07 07:00:19;;;;;;;1.92;1.27;;;17.30;80.20;;;;;;4939169;28;20071;-84
2021/09/07 07:02:48;;;;;;;1.70;1.20;;;17.30;80.00;;;;;;4953611;28;20051;-88
2021/09/07 07:05:53;;;;;;;2.33;1.60;;;17.50;80.10;;;;;;4898507;29;20044;-88
2021/09/07 07:08:19;;;;;;;1.95;1.30;;;17.50;80.10;;;;;;4899729;29;20080;-87
2021/09/07 07:11:14;;;;;;;1.85;1.25;;;17.60;80.00;;;;;;4904056;29;20041;-87
2021/09/07 07:14:21;;;;;;;2.00;1.25;;;17.70;79.90;;;;;;4868512;29;20068;-87
2021/09/07 07:16:48;;;;;;;2.25;1.20;;;17.80;79.80;;;;;;4851834;29;20054;-87
2021/09/07 07:20:32;;;;;;;2.75;1.73;;;17.90;79.80;;;;;;4865091;29;20111;-87
2021/09/07 07:23:38;;;;;;;2.15;1.40;;;17.90;79.80;;;;;;4786851;29;20150;-89
2021/09/07 07:26:06;;;;;;;3.13;1.30;;;18.10;79.70;;;;;;4769403;30;20090;-86
2021/09/07 07:28:32;;;;;;;2.30;1.42;;;18.10;79.50;;;;;;4723318;30;20095;-85
2021/09/07 07:31:12;;;;;;;2.05;1.30;;;18.20;79.40;;;;;;4738720;30;20106;-86
2021/09/07 07:36:54;;;;;;;2.05;1.20;;;18.30;79.40;;;;;;4732020;30;20052;-87
2021/09/07 07:39:20;;;;;;;1.65;1.20;;;18.40;79.40;;;;;;4744700;30;20052;-88
2021/09/07 07:42:06;;;;;;;2.05;1.20;;;18.50;79.30;;;;;;4754913;30;20113;-87
2021/09/07 07:45:06;;;;;;;1.95;1.20;;;18.60;79.30;;;;;;4779751;30;21523;-89
2021/09/07 07:47:44;;;;;;;1.88;1.35;;;18.70;79.30;;;;;;4769925;30;20101;-90
2021/09/07 07:50:23;;;;;;;2.83;1.70;;;18.70;79.20;;;;;;4790518;29;20062;-89
2021/09/07 07:56:05;;;;;;;2.65;1.75;;;18.90;79.10;;;;;;4731974;30;20052;-82
2021/09/07 07:58:34;;;;;;;3.38;1.80;;;19.00;79.00;;;;;;4757334;30;20055;-87
2021/09/07 08:01:43;;;;;;;4.28;2.50;;;19.10;79.00;;;;;;4763201;30;20055;-87
2021/09/07 08:04:16;;;;;;;2.88;1.45;;;19.20;78.90;;;;;;4764150;30;20075;-87
2021/09/07 08:11:30;;;;;;;2.13;1.42;;;19.50;78.60;;;;;;4775092;30;20066;-89
2021/09/07 08:21:24;;;;;;;1.50;1.00;;;19.90;77.70;;;;;;4751655;30;20055;-86
2021/09/07 08:23:50;;;;;;;4.00;1.80;;;20.10;77.60;;;;;;4737607;30;20079;-88
2021/09/07 08:26:49;;;;;;;2.53;1.70;;;20.10;77.60;;;;;;4716971;30;20072;-89
2021/09/07 08:29:19;;;;;;;2.60;1.67;;;20.30;77.60;;;;;;4681577;30;20084;-88
2021/09/07 08:31:45;;;;;;;2.25;1.30;;;20.40;77.50;;;;;;4681913;30;20054;-85
2021/09/07 08:34:11;;;;;;;2.78;1.67;;;20.50;77.30;;;;;;4667214;30;20046;-85
2021/09/07 08:36:37;;;;;;;2.63;1.50;;;20.60;77.20;;;;;;4697678;30;20060;-83
2021/09/07 08:39:04;;;;;;;2.50;1.67;;;20.60;77.20;;;;;;4696327;30;20417;-82
2021/09/07 08:41:36;;;;;;;2.50;1.67;;;20.70;77.20;;;;;;4682469;30;20046;-85
2021/09/07 08:44:08;;;;;;;2.80;1.67;;;20.80;77.00;;;;;;4700055;30;20041;-84
2021/09/07 08:46:59;;;;;;;3.85;1.90;;;20.90;76.90;;;;;;4749767;30;20051;-89
2021/09/07 08:49:24;;;;;;;1.67;1.30;;;21.00;76.90;;;;;;4805798;29;20146;-86
2021/09/07 08:51:50;;;;;;;2.10;1.52;;;21.10;76.80;;;;;;4807580;29;20071;-85
2021/09/07 09:02:23;;;;;;;2.60;1.52;;;21.40;76.50;;;;;;4862564;29;20147;-86
2021/09/07 09:04:50;;;;;;;2.58;1.70;;;21.40;76.50;;;;;;4859997;29;20503;-86
2021/09/07 09:07:26;;;;;;;2.17;1.35;;;21.60;76.70;;;;;;4860825;29;20037;-88
2021/09/07 09:09:53;;;;;;;1.70;1.33;;;21.60;76.50;;;;;;4844463;29;20080;-87
2021/09/07 09:12:29;;;;;;;1.48;1.33;;;21.60;76.50;;;;;;4844572;29;20050;-86
2021/09/07 09:14:57;;;;;;;3.25;1.40;;;21.70;76.40;;;;;;4868132;29;20116;-89
2021/09/07 09:17:57;;;;;;;2.38;1.60;;;21.90;76.40;;;;;;4844868;29;20057;-89
2021/09/07 09:21:33;;;;;;;2.60;1.80;;;21.90;76.20;;;;;;4826234;29;20090;-89
2021/09/07 09:24:12;;;;;;;1.95;1.30;;;21.90;76.30;;;;;;4779969;29;20058;-90
2021/09/07 09:26:56;;;;;;;2.10;1.48;;;21.90;76.20;;;;;;4789397;29;20525;-89
2021/09/07 09:29:24;;;;;;;2.25;1.40;;;22.00;76.10;;;;;;4812925;29;20046;-88
2021/09/07 09:32:13;;;;;;;1.95;1.33;;;22.00;76.10;;;;;;4823517;29;20505;-89
2021/09/07 09:35:41;;;;;;;2.10;1.30;;;22.00;75.90;;;;;;4786776;30;20050;-90
2021/09/07 09:41:40;;;;;;;2.28;1.58;;;22.00;76.00;;;;;;4716509;30;20141;-88
2021/09/07 09:44:34;;;;;;;2.67;1.48;;;22.00;76.00;;;;;;4719136;30;20059;-88
2021/09/07 09:47:36;;;;;;;1.92;1.38;;;22.10;75.90;;;;;;4719672;30;20143;-90
2021/09/07 09:50:03;;;;;;;2.47;1.65;;;22.10;75.80;;;;;;4750360;30;20071;-85
2021/09/07 09:52:34;;;;;;;2.28;1.38;;;22.20;75.60;;;;;;4740145;30;20060;-83
2021/09/07 09:55:02;;;;;;;2.65;1.83;;;22.20;75.40;;;;;;4773233;29;20078;-85
2021/09/07 09:58:06;;;;;;;2.10;1.48;;;22.20;75.30;;;;;;4803674;29;20545;-92
2021/09/07 10:00:38;;;;;;;2.85;1.80;;;22.20;75.20;;;;;;4719227;30;20049;-89
2021/09/07 10:03:09;;;;;;;2.83;1.70;;;22.30;75.20;;;;;;4691844;30;20137;-86
2021/09/07 10:05:39;;;;;;;2.30;1.63;;;22.30;75.10;;;;;;4756733;30;20138;-87
2021/09/07 10:08:28;;;;;;;2.45;1.60;;;22.30;75.10;;;;;;4756071;29;20035;-86
2021/09/07 10:11:01;;;;;;;2.28;1.55;;;22.30;74.90;;;;;;4774243;29;20051;-87
2021/09/07 10:13:30;;;;;;;2.92;1.77;;;22.30;74.90;;;;;;4799366;29;20118;-83
2021/09/07 10:16:01;;;;;;;3.10;1.80;;;22.30;74.90;;;;;;4775425;30;20044;-84
2021/09/07 10:44:23;;;;;;;2.38;1.45;;;22.70;73.20;;;;;;4877920;29;20100;-86
2021/09/07 10:47:00;;;;;;;1.80;1.38;;;22.80;73.10;;;;;;4847525;29;20057;-86
2021/09/07 10:49:47;;;;;;;2.67;1.60;;;22.90;73.00;;;;;;4846109;29;20045;-85
2021/09/07 10:52:22;;;;;;;2.67;1.75;;;22.90;72.90;;;;;;4862667;29;20045;-86
2021/09/07 10:55:14;;;;;;;2.47;1.42;;;22.90;72.70;;;;;;4861526;29;20052;-85
2021/09/07 10:57:52;;;;;;;3.03;1.77;;;23.00;72.60;;;;;;4847674;29;20039;-85
2021/09/07 11:01:15;;;;;;;3.33;2.00;;;23.00;72.50;;;;;;4861826;29;20056;-83
2021/09/07 11:03:41;;;;;;;2.88;2.00;;;23.10;72.40;;;;;;4803050;29;20078;-86
2021/09/07 11:06:44;;;;;;;3.60;2.30;;;23.10;72.20;;;;;;4788082;29;20541;-87
2021/09/07 11:09:45;;;;;;;2.60;1.70;;;23.20;71.90;;;;;;4787875;29;20114;-89
2021/09/07 11:12:29;;;;;;;3.33;1.80;;;23.30;71.80;;;;;;4791982;29;20051;-84
2021/09/07 11:15:09;;;;;;;3.22;1.90;;;23.40;71.60;;;;;;4801800;29;20127;-85
2021/09/07 11:17:49;;;;;;;2.33;1.77;;;23.30;71.40;;;;;;4803107;29;20051;-85
2021/09/07 11:24:08;;;;;;;;;;;23.40;71.30;;;;;;4738437;30;20040;-88
2021/09/07 11:31:18;;;;;;;2.10;1.42;;;23.50;71.10;;;;;;4764045;30;20055;-87
2021/09/07 11:38:13;;;;;;;1.48;1.00;;;23.60;70.70;;;;;;4791261;29;20062;-91
2021/09/07 11:41:09;;;;;;;1.65;1.23;;;23.60;70.50;;;;;;4761068;30;20039;-88
2021/09/07 11:44:42;;;;;;;2.88;1.60;;;23.70;70.50;;;;;;4728646;30;20161;-90
2021/09/07 11:47:08;;;;;;;3.28;2.05;;;23.80;70.30;;;;;;4739191;30;20484;-85
2021/09/07 11:49:39;;;;;;;2.50;1.80;;;23.90;70.00;;;;;;4741949;30;20476;-84
2021/09/07 11:55:39;;;;;;;2.72;1.67;;;24.00;69.50;;;;;;4728619;30;20040;-82
2021/09/07 11:58:07;;;;;;;3.10;1.50;;;24.10;69.30;;;;;;4734826;30;20121;-82
2021/09/07 12:00:43;;;;;;;1.85;1.48;;;24.20;69.20;;;;;;4782024;29;20050;-88
2021/09/07 12:03:15;;;;;;;2.35;1.60;;;24.20;69.00;;;;;;4815417;29;20057;-85
2021/09/07 12:21:28;;;;;;;2.08;1.35;;;24.60;68.50;;;;;;4890772;29;20064;-85
2021/09/07 12:25:04;;;;;;;2.42;1.60;;;24.60;68.30;;;;;;4897881;29;20121;-89
2021/09/07 12:28:03;;;;;;;1.98;1.50;;;24.70;68.40;;;;;;4809575;29;20050;-84
2021/09/07 12:30:38;;;;;;;2.00;1.38;;;24.70;68.30;;;;;;4821963;29;20074;-84
2021/09/07 12:33:16;;;;;;;1.85;1.40;;;24.70;68.30;;;;;;4810593;29;20571;-84
2021/09/07 12:40:19;;;;;;;1.92;1.50;;;24.80;68.10;;;;;;4815255;29;20094;-86
2021/09/07 12:43:53;;;;;;;1.80;1.33;;;24.80;68.00;;;;;;4784249;29;20091;-88
2021/09/07 12:46:22;;;;;;;2.58;1.40;;;24.90;68.10;;;;;;4734067;30;20178;-89
2021/09/07 12:48:49;;;;;;;3.67;2.20;;;25.00;68.00;;;;;;4720501;30;20392;-84
2021/09/07 12:54:38;;;;;;;2.45;1.75;;;25.00;67.50;;;;;;4702028;30;20130;-83
2021/09/07 12:57:26;;;;;;;2.35;1.42;;;25.00;67.60;;;;;;4716785;30;20069;-87
2021/09/07 13:08:28;;;;;;;2.25;1.48;;;25.10;67.50;;;;;;4750509;30;20127;-87
2021/09/07 13:11:26;;;;;;;1.58;1.20;;;25.10;67.50;;;;;;4751285;30;20052;-90
2021/09/07 13:14:09;;;;;;;1.75;1.25;;;25.10;67.70;;;;;;4753294;30;20136;-87
2021/09/07 13:16:48;;;;;;;2.63;1.80;;;25.00;67.70;;;;;;4759535;30;20111;-86
2021/09/07 13:19:14;;;;;;;2.20;1.50;;;25.00;67.70;;;;;;4763452;30;20044;-80
2021/09/07 13:28:36;;;;;;;2.15;1.50;;;25.10;67.90;;;;;;4696916;30;20132;-81
2021/09/07 13:31:02;;;;;;;2.30;1.60;;;25.00;67.80;;;;;;4685782;30;20128;-82
2021/09/07 13:33:28;;;;;;;1.70;1.40;;;25.10;67.70;;;;;;4712371;30;20057;-82
2021/09/07 13:35:54;;;;;;;1.83;1.40;;;25.10;67.60;;;;;;4685039;30;20167;-80
2021/09/07 13:38:19;;;;;;;2.45;1.60;;;25.10;67.60;;;;;;4709167;30;20062;-80
2021/09/07 13:40:45;;;;;;;2.60;1.77;;;25.10;67.50;;;;;;4691642;30;20084;-80
2021/09/07 13:43:11;;;;;;;2.47;1.63;;;25.20;67.50;;;;;;4692441;30;20050;-81
2021/09/07 13:45:37;;;;;;;1.92;1.50;;;25.20;67.40;;;;;;4684043;30;20057;-82
2021/09/07 13:48:06;;;;;;;2.00;1.60;;;25.20;67.20;;;;;;4682050;30;20448;-80
2021/09/07 13:50:32;;;;;;;2.35;1.40;;;25.30;67.30;;;;;;4697322;30;20502;-84
2021/09/07 13:53:00;;;;;;;2.08;1.50;;;25.20;67.20;;;;;;4707207;30;20052;-83
2021/09/07 13:55:28;;;;;;;2.00;1.50;;;25.20;67.30;;;;;;4706523;30;20084;-82
2021/09/07 13:57:54;;;;;;;2.53;1.45;;;25.30;67.20;;;;;;4735125;29;20051;-82
2021/09/07 14:00:20;;;;;;;1.75;1.30;;;25.30;67.00;;;;;;4849698;29;20075;-80
2021/09/07 14:02:46;;;;;;;2.05;1.50;;;25.30;66.90;;;;;;4900790;29;20096;-77
2021/09/07 14:05:12;;;;;;;2.15;1.55;;;25.30;66.80;;;;;;4896858;29;20448;-77
2021/09/07 14:07:39;;;;;;;2.22;1.52;;;25.20;66.90;;;;;;4900250;29;20139;-80
2021/09/07 14:10:05;;;;;;;1.90;1.50;;;25.20;67.00;;;;;;4883426;29;20048;-81
2021/09/07 14:12:31;;;;;;;1.80;1.40;;;25.10;67.00;;;;;;4897017;29;20087;-79
2021/09/07 14:15:00;;;;;;;1.65;1.40;;;25.10;67.00;;;;;;4865382;29;20068;-79
2021/09/07 14:17:27;;;;;;;1.85;1.38;;;25.20;67.00;;;;;;4878113;29;20048;-80
2021/09/07 14:20:40;;;;;;;2.20;1.50;;;25.10;66.90;;;;;;4852071;29;20052;-83
2021/09/07 14:23:05;;;;;;;2.10;1.58;;;25.10;66.90;;;;;;4850780;29;20049;-79
2021/09/07 14:25:31;;;;;;;2.75;1.70;;;25.10;67.00;;;;;;4870058;29;20080;-80
2021/09/07 14:27:57;;;;;;;1.73;1.30;;;25.00;66.90;;;;;;4868013;29;20037;-81
2021/09/07 14:30:22;;;;;;;1.92;1.52;;;25.00;66.80;;;;;;4861697;29;20099;-80
2021/09/07 14:32:48;;;;;;;1.83;1.38;;;25.00;66.80;;;;;;4857980;29;20045;-80
2021/09/07 14:35:14;;;;;;;1.52;1.20;;;25.00;66.80;;;;;;4857975;29;20098;-80
2021/09/07 14:37:42;;;;;;;1.52;1.30;;;25.00;66.80;;;;;;4858434;29;20037;-80
2021/09/07 14:40:08;;;;;;;2.05;1.42;;;24.90;66.90;;;;;;4858208;29;20110;-81
2021/09/07 14:42:33;;;;;;;2.70;1.50;;;24.90;66.90;;;;;;4857649;29;20041;-80
2021/09/07 14:45:00;;;;;;;1.95;1.50;;;24.90;66.80;;;;;;4860541;29;20044;-81
2021/09/07 14:48:22;;;;;;;2.35;1.60;;;24.90;66.70;;;;;;4857977;29;20042;-85
2021/09/07 14:50:48;;;;;;;2.03;1.33;;;24.90;66.50;;;;;;4835434;29;20094;-83
2021/09/07 14:53:14;;;;;;;2.45;1.75;;;24.90;66.50;;;;;;4823922;29;20046;-83
2021/09/07 14:55:40;;;;;;;1.60;1.40;;;24.90;66.40;;;;;;4839292;29;20563;-83
2021/09/07 14:58:08;;;;;;;2.80;1.80;;;24.90;66.30;;;;;;4824230;29;20068;-83
2021/09/07 15:00:37;;;;;;;2.30;1.50;;;25.00;66.30;;;;;;4824677;29;20053;-84
2021/09/07 15:03:04;;;;;;;2.70;1.75;;;25.00;66.20;;;;;;4839449;29;20044;-84
2021/09/07 15:05:31;;;;;;;1.60;1.30;;;24.90;66.10;;;;;;4824500;29;20042;-84
2021/09/07 15:07:57;;;;;;;2.08;1.50;;;25.00;66.10;;;;;;4824987;29;20140;-86
2021/09/07 15:11:05;;;;;;;1.40;1.30;;;24.90;66.00;;;;;;4841750;29;20053;-88
2021/09/07 15:17:32;;;;;;;2.13;1.40;;;24.90;66.00;;;;;;4787692;29;20054;-83
2021/09/07 15:20:00;;;;;;;1.67;1.23;;;24.90;66.70;;;;;;4789274;29;20063;-89